createdAt,value
2018-06-01T00:00:02.141Z,98873.80
2018-06-01T00:00:23.392Z,98870.45
2018-06-01T00:00:45.539Z,98869.02
2018-06-01T00:01:06.702Z,98870.16
2018-06-01T00:01:27.953Z,98866.88
2018-06-01T00:01:50.944Z,98863.02
2018-06-01T00:02:13.079Z,98861.11
2018-06-01T00:02:36.091Z,98864.56
2018-06-01T00:02:57.713Z,98853.67
2018-06-01T00:03:19.342Z,98853.67
2018-06-01T00:03:42.352Z,98854.88
2018-06-01T00:04:05.113Z,98852.92
2018-06-01T00:04:27.470Z,98850.61
2018-06-01T00:04:49.621Z,98847.84
2018-06-01T00:05:10.838Z,98852.34
2018-06-01T00:05:33.834Z,98851.31
2018-06-01T00:05:56.227Z,98850.38
2018-06-01T00:06:17.530Z,98851.25
2018-06-01T00:06:40.536Z,98848.77
2018-06-01T00:07:01.789Z,98846.86
2018-06-01T00:07:24.779Z,98848.70
2018-06-01T00:07:46.076Z,98846.86
2018-06-01T00:08:09.166Z,98847.38
2018-06-01T00:08:30.509Z,98842.59
2018-06-01T00:08:51.838Z,98846.06
2018-06-01T00:09:16.033Z,98844.33
2018-06-01T00:09:39.021Z,98844.96
2018-06-01T00:10:02.050Z,98847.50
2018-06-01T00:10:23.302Z,98840.69
2018-06-01T00:10:44.541Z,98844.96
2018-06-01T00:11:06.179Z,98843.41
2018-06-01T00:11:29.190Z,98837.70
2018-06-01T00:11:50.804Z,98839.14
2018-06-01T00:12:13.816Z,98832.39
2018-06-01T00:12:35.464Z,98834.41
2018-06-01T00:12:57.091Z,98833.09
2018-06-01T00:13:19.141Z,98837.98
2018-06-01T00:13:41.561Z,98832.45
2018-06-01T00:14:03.909Z,98832.45
2018-06-01T00:14:26.983Z,98833.27
2018-06-01T00:14:49.999Z,98833.38
2018-06-01T00:15:12.980Z,98823.58
2018-06-01T00:15:35.731Z,98830.32
2018-06-01T00:15:57.019Z,98827.16
2018-06-01T00:16:18.372Z,98828.59
2018-06-01T00:16:41.385Z,98830.78
2018-06-01T00:17:03.757Z,98834.07
2018-06-01T00:17:26.123Z,98825.36
2018-06-01T00:17:47.820Z,98828.02
2018-06-01T00:18:09.111Z,98826.11
2018-06-01T00:18:32.117Z,98833.20
2018-06-01T00:18:53.363Z,98829.98
2018-06-01T00:19:14.990Z,98823.75
2018-06-01T00:19:39.980Z,98817.64
2018-06-01T00:20:01.994Z,98823.12
2018-06-01T00:20:24.049Z,98825.66
2018-06-01T00:20:46.398Z,98818.91
2018-06-01T00:21:07.730Z,98823.30
2018-06-01T00:21:30.724Z,98819.08
2018-06-01T00:21:53.710Z,98819.89
2018-06-01T00:22:14.988Z,98820.81
2018-06-01T00:22:36.977Z,98817.93
2018-06-01T00:22:58.262Z,98818.05
2018-06-01T00:23:19.543Z,98823.52
2018-06-01T00:23:41.163Z,98826.47
2018-06-01T00:24:03.180Z,98824.45
2018-06-01T00:24:24.471Z,98827.80
2018-06-01T00:24:47.489Z,98825.77
2018-06-01T00:25:09.558Z,98827.33
2018-06-01T00:25:31.550Z,98827.09
2018-06-01T00:25:53.181Z,98826.30
2018-06-01T00:26:14.659Z,98833.03
2018-06-01T00:26:35.908Z,98835.05
2018-06-01T00:26:58.693Z,98831.54
2018-06-01T00:27:20.309Z,98831.25
2018-06-01T00:27:41.600Z,98832.58
2018-06-01T00:28:02.823Z,98832.58
2018-06-01T00:28:25.234Z,98834.59
2018-06-01T00:28:47.579Z,98832.63
2018-06-01T00:29:10.933Z,98837.94
2018-06-01T00:29:33.999Z,98833.27
2018-06-01T00:29:56.399Z,98829.70
2018-06-01T00:30:18.753Z,98830.96
2018-06-01T00:30:40.019Z,98831.54
2018-06-01T00:31:01.275Z,98833.55
2018-06-01T00:31:24.083Z,98832.23
2018-06-01T00:31:45.321Z,98830.33
2018-06-01T00:32:06.959Z,98829.17
2018-06-01T00:32:28.219Z,98828.08
2018-06-01T00:32:49.463Z,98830.09
2018-06-01T00:33:10.743Z,98827.45
2018-06-01T00:33:33.176Z,98826.00
2018-06-01T00:33:54.455Z,98829.06
2018-06-01T00:34:15.741Z,98830.84
2018-06-01T00:34:38.156Z,98825.83
2018-06-01T00:35:00.137Z,98829.70
2018-06-01T00:35:23.114Z,98834.08
2018-06-01T00:35:45.915Z,98830.91
2018-06-01T00:36:07.532Z,98832.75
2018-06-01T00:36:29.580Z,98827.16
2018-06-01T00:36:51.607Z,98835.69
2018-06-01T00:37:14.574Z,98831.42
2018-06-01T00:37:36.206Z,98836.91
2018-06-01T00:37:58.196Z,98840.25
2018-06-01T00:38:19.890Z,98842.38
2018-06-01T00:38:41.927Z,98845.32
2018-06-01T00:39:04.033Z,98848.38
2018-06-01T00:39:26.012Z,98848.49
2018-06-01T00:39:47.647Z,98850.92
2018-06-01T00:40:09.660Z,98853.22
2018-06-01T00:40:32.413Z,98857.20
2018-06-01T00:40:54.423Z,98863.48
2018-06-01T00:41:16.043Z,98864.30
2018-06-01T00:41:39.075Z,98866.31
2018-06-01T00:42:00.343Z,98870.76
2018-06-01T00:42:22.665Z,98869.43
2018-06-01T00:42:45.051Z,98877.62
2018-06-01T00:43:06.726Z,98871.68
2018-06-01T00:43:29.696Z,98875.95
2018-06-01T00:43:51.680Z,98879.00
2018-06-01T00:44:12.954Z,98880.16
2018-06-01T00:44:35.896Z,98888.70
2018-06-01T00:44:57.127Z,98892.91
2018-06-01T00:45:18.733Z,98890.89
2018-06-01T00:45:41.695Z,98897.52
2018-06-01T00:46:03.301Z,98895.27
2018-06-01T00:46:26.280Z,98906.92
2018-06-01T00:46:47.547Z,98912.52
2018-06-01T00:47:10.546Z,98911.88
2018-06-01T00:47:31.769Z,98913.55
2018-06-01T00:47:54.551Z,98920.19
2018-06-01T00:48:17.573Z,98915.80
2018-06-01T00:48:38.858Z,98919.78
2018-06-01T00:49:00.061Z,98921.22
2018-06-01T00:49:23.282Z,98920.88
2018-06-01T00:49:46.358Z,98925.27
2018-06-01T00:50:07.571Z,98925.32
2018-06-01T00:50:29.207Z,98923.99
2018-06-01T00:50:50.472Z,98922.26
2018-06-01T00:51:12.814Z,98928.84
2018-06-01T00:51:34.065Z,98933.68
2018-06-01T00:51:55.319Z,98927.05
2018-06-01T00:52:16.568Z,98934.37
2018-06-01T00:52:38.204Z,98934.03
2018-06-01T00:52:59.447Z,98938.36
2018-06-01T00:53:21.480Z,98939.22
2018-06-01T00:53:43.118Z,98937.67
2018-06-01T00:54:04.343Z,98938.53
2018-06-01T00:54:28.299Z,98937.38
2018-06-01T00:55:08.439Z,98935.24
2018-06-01T00:55:30.408Z,98936.52
2018-06-01T00:55:51.674Z,98940.20
2018-06-01T00:56:13.284Z,98940.38
2018-06-01T00:56:35.311Z,98944.36
2018-06-01T00:56:58.046Z,98944.42
2018-06-01T00:57:19.279Z,98947.94
2018-06-01T00:57:42.289Z,98953.53
2018-06-01T00:58:03.533Z,98957.52
2018-06-01T00:58:25.908Z,98953.59
2018-06-01T00:58:47.545Z,98956.59
2018-06-01T00:59:08.759Z,98968.12
2018-06-01T00:59:30.783Z,98971.59
2018-06-01T00:59:52.005Z,98970.73
2018-06-01T01:00:14.956Z,98977.66
2018-06-01T01:00:37.993Z,98985.16
2018-06-01T01:00:59.258Z,98982.73
2018-06-01T01:01:21.969Z,98983.20
2018-06-01T01:01:44.358Z,98978.41
2018-06-01T01:02:05.944Z,98982.03
2018-06-01T01:02:28.316Z,98990.13
2018-06-01T01:02:50.686Z,98985.97
2018-06-01T01:03:12.363Z,98988.38
2018-06-01T01:03:35.386Z,98990.29
2018-06-01T01:03:58.464Z,98987.86
2018-06-01T01:04:20.110Z,98985.38
2018-06-01T01:04:41.763Z,98977.70
2018-06-01T01:05:03.787Z,98990.03
2018-06-01T01:05:25.048Z,98989.91
2018-06-01T01:05:46.685Z,98985.75
2018-06-01T01:06:09.694Z,98986.48
2018-06-01T01:06:30.960Z,98980.69
2018-06-01T01:06:53.936Z,98987.70
2018-06-01T01:07:15.930Z,98977.19
2018-06-01T01:07:38.895Z,98979.30
2018-06-01T01:08:01.881Z,98980.38
2018-06-01T01:08:24.267Z,98982.03
2018-06-01T01:08:46.295Z,98980.12
2018-06-01T01:09:08.751Z,98981.08
2018-06-01T01:09:30.328Z,98985.03
2018-06-01T01:09:51.546Z,98985.08
2018-06-01T01:10:14.548Z,98986.06
2018-06-01T01:10:37.509Z,98988.58
2018-06-01T01:11:00.246Z,98987.99
2018-06-01T01:11:23.256Z,98989.42
2018-06-01T01:11:44.875Z,98988.62
2018-06-01T01:12:07.887Z,98992.92
2018-06-01T01:12:29.170Z,98990.61
2018-06-01T01:12:51.125Z,98993.27
2018-06-01T01:13:13.499Z,98995.10
2018-06-01T01:13:38.469Z,98998.16
2018-06-01T01:14:00.868Z,98999.48
2018-06-01T01:14:24.300Z,99004.38
2018-06-01T01:14:45.931Z,99008.20
2018-06-01T01:15:07.636Z,99003.46
2018-06-01T01:15:30.025Z,99007.80
2018-06-01T01:15:52.055Z,99007.36
2018-06-01T01:16:14.148Z,99017.89
2018-06-01T01:16:36.549Z,99007.22
2018-06-01T01:16:59.546Z,99012.73
2018-06-01T01:17:21.927Z,99003.50
2018-06-01T01:17:44.895Z,99000.52
2018-06-01T01:18:06.527Z,99009.45
2018-06-01T01:18:29.251Z,99005.38
2018-06-01T01:18:50.516Z,99007.17
2018-06-01T01:19:12.984Z,99001.91
2018-06-01T01:19:35.360Z,98996.13
2018-06-01T01:19:56.631Z,99000.54
2018-06-01T01:20:19.669Z,98998.62
2018-06-01T01:20:40.962Z,98995.83
2018-06-01T01:21:03.965Z,99004.39
2018-06-01T01:21:25.969Z,98999.42
2018-06-01T01:21:48.359Z,98998.50
2018-06-01T01:22:10.313Z,99002.40
2018-06-01T01:22:33.337Z,98998.13
2018-06-01T01:22:55.345Z,98999.56
2018-06-01T01:23:16.633Z,98999.19
2018-06-01T01:23:39.651Z,98990.25
2018-06-01T01:24:02.614Z,98991.36
2018-06-01T01:24:24.624Z,98989.44
2018-06-01T01:24:47.093Z,98986.50
2018-06-01T01:25:10.089Z,98979.99
2018-06-01T01:25:31.743Z,98978.70
2018-06-01T01:25:53.434Z,98973.81
2018-06-01T01:26:15.473Z,98975.33
2018-06-01T01:26:36.704Z,98966.71
2018-06-01T01:26:58.793Z,98961.50
2018-06-01T01:27:21.808Z,98958.51
2018-06-01T01:27:43.855Z,98960.67
2018-06-01T01:28:06.300Z,98958.22
2018-06-01T01:28:27.912Z,98961.59
2018-06-01T01:28:50.933Z,98958.22
2018-06-01T01:29:12.187Z,98963.13
2018-06-01T01:29:35.181Z,98964.86
2018-06-01T01:29:57.208Z,98965.80
2018-06-01T01:30:19.250Z,98961.05
2018-06-01T01:30:41.638Z,98961.16
2018-06-01T01:31:04.655Z,98958.81
2018-06-01T01:31:26.263Z,98962.30
2018-06-01T01:31:47.534Z,98954.95
2018-06-01T01:32:08.802Z,98950.28
2018-06-01T01:32:31.794Z,98952.93
2018-06-01T01:32:54.578Z,98951.31
2018-06-01T01:33:16.215Z,98947.26
2018-06-01T01:33:38.950Z,98946.97
2018-06-01T01:34:00.244Z,98953.25
2018-06-01T01:34:23.271Z,98946.86
2018-06-01T01:34:44.927Z,98956.41
2018-06-01T01:35:06.185Z,98955.38
2018-06-01T01:35:27.505Z,98956.89
2018-06-01T01:35:50.634Z,98954.47
2018-06-01T01:36:13.404Z,98948.96
2018-06-01T01:36:36.443Z,98946.80
2018-06-01T01:36:57.716Z,98940.73
2018-06-01T01:37:31.495Z,98938.38
2018-06-01T01:37:53.487Z,98936.03
2018-06-01T01:38:16.524Z,98932.17
2018-06-01T01:38:39.533Z,98933.89
2018-06-01T01:39:00.808Z,98930.17
2018-06-01T01:39:23.809Z,98923.91
2018-06-01T01:39:45.053Z,98928.39
2018-06-01T01:40:06.274Z,98925.19
2018-06-01T01:40:28.657Z,98922.05
2018-06-01T01:40:57.645Z,98925.11
2018-06-01T01:41:19.273Z,98924.11
2018-06-01T01:41:42.254Z,98922.62
2018-06-01T01:42:03.529Z,98919.66
2018-06-01T01:42:26.536Z,98921.19
2018-06-01T01:42:48.527Z,98920.95
2018-06-01T01:43:11.539Z,98919.55
2018-06-01T01:43:34.315Z,98915.04
2018-06-01T01:43:57.356Z,98913.61
2018-06-01T01:44:19.032Z,98907.43
2018-06-01T01:44:41.402Z,98901.38
2018-06-01T01:45:03.864Z,98903.70
2018-06-01T01:45:26.617Z,98904.30
2018-06-01T01:45:49.611Z,98904.62
2018-06-01T01:46:11.641Z,98899.41
2018-06-01T01:46:34.086Z,98904.45
2018-06-01T01:46:55.699Z,98899.56
2018-06-01T01:47:18.780Z,98900.75
2018-06-01T01:47:41.765Z,98912.44
2018-06-01T01:48:04.781Z,98912.77
2018-06-01T01:48:27.791Z,98920.19
2018-06-01T01:48:49.443Z,98917.86
2018-06-01T01:49:11.447Z,98928.26
2018-06-01T01:49:33.859Z,98929.47
2018-06-01T01:49:56.868Z,98935.09
2018-06-01T01:50:19.625Z,98931.52
2018-06-01T01:50:41.991Z,98933.25
2018-06-01T01:51:03.604Z,98924.34
2018-06-01T01:51:25.609Z,98929.42
2018-06-01T01:51:48.590Z,98934.30
2018-06-01T01:52:10.203Z,98934.02
2018-06-01T01:52:33.181Z,98927.77
2018-06-01T01:52:55.969Z,98926.45
2018-06-01T01:53:17.991Z,98930.72
2018-06-01T01:53:39.602Z,98932.45
2018-06-01T01:54:02.652Z,98935.79
2018-06-01T01:54:24.271Z,98932.66
2018-06-01T01:54:45.505Z,98935.39
2018-06-01T01:55:08.503Z,98934.98
2018-06-01T01:55:31.498Z,98940.59
2018-06-01T01:55:54.514Z,98943.67
2018-06-01T01:56:16.307Z,98935.92
2018-06-01T01:56:38.704Z,98939.78
2018-06-01T01:56:59.959Z,98941.00
2018-06-01T01:57:22.947Z,98946.80
2018-06-01T01:57:45.924Z,98952.69
2018-06-01T01:58:07.535Z,98950.23
2018-06-01T01:58:29.190Z,98950.02
2018-06-01T01:58:51.557Z,98952.01
2018-06-01T01:59:12.865Z,98955.36
2018-06-01T01:59:34.867Z,98962.89
2018-06-01T01:59:57.585Z,98956.68
2018-06-01T02:00:20.570Z,98960.55
2018-06-01T02:00:42.885Z,98960.73
2018-06-01T02:01:05.615Z,98961.84
2018-06-01T02:01:27.665Z,98959.08
2018-06-01T02:01:50.023Z,98958.84
2018-06-01T02:02:13.013Z,98961.38
2018-06-01T02:02:35.999Z,98960.86
2018-06-01T02:02:58.332Z,98963.28
2018-06-01T02:03:21.310Z,98958.91
2018-06-01T02:03:44.297Z,98962.96
2018-06-01T02:04:07.301Z,98967.73
2018-06-01T02:04:29.632Z,98958.00
2018-06-01T02:04:52.618Z,98966.10
2018-06-01T02:05:14.331Z,98958.92
2018-06-01T02:05:36.704Z,98967.59
2018-06-01T02:05:59.669Z,98968.09
2018-06-01T02:06:21.624Z,98970.23
2018-06-01T02:06:44.606Z,98959.67
2018-06-01T02:07:06.643Z,98961.70
2018-06-01T02:07:27.842Z,98962.13
2018-06-01T02:07:50.816Z,98965.89
2018-06-01T02:08:13.772Z,98966.91
2018-06-01T02:08:36.754Z,98961.43
2018-06-01T02:08:59.746Z,98961.45
2018-06-01T02:09:21.695Z,98956.49
2018-06-01T02:09:44.685Z,98949.48
2018-06-01T02:10:06.283Z,98954.88
2018-06-01T02:10:28.997Z,98957.00
2018-06-01T02:10:50.968Z,98949.80
2018-06-01T02:11:13.310Z,98947.37
2018-06-01T02:11:36.280Z,98943.56
2018-06-01T02:11:58.610Z,98947.09
2018-06-01T02:12:20.201Z,98943.05
2018-06-01T02:12:41.407Z,98941.43
2018-06-01T02:13:03.394Z,98950.31
2018-06-01T02:13:26.083Z,98945.16
2018-06-01T02:13:49.064Z,98933.36
2018-06-01T02:14:12.022Z,98942.31
2018-06-01T02:14:34.557Z,98943.16
2018-06-01T02:14:56.551Z,98941.51
2018-06-01T02:15:18.531Z,98942.15
2018-06-01T02:15:41.231Z,98944.47
2018-06-01T02:16:03.567Z,98942.45
2018-06-01T02:16:26.562Z,98938.97
2018-06-01T02:16:48.170Z,98937.27
2018-06-01T02:17:10.546Z,98941.20
2018-06-01T02:17:33.517Z,98940.31
2018-06-01T02:17:56.485Z,98941.45
2018-06-01T02:18:17.745Z,98939.51
2018-06-01T02:18:40.683Z,98941.45
2018-06-01T02:19:03.667Z,98938.72
2018-06-01T02:19:26.678Z,98942.95
2018-06-01T02:19:49.007Z,98944.09
2018-06-01T02:20:10.259Z,98947.16
2018-06-01T02:20:33.355Z,98940.95
2018-06-01T02:20:56.062Z,98950.21
2018-06-01T02:21:19.025Z,98945.45
2018-06-01T02:21:40.726Z,98950.13
2018-06-01T02:22:01.938Z,98947.80
2018-06-01T02:22:24.934Z,98951.15
2018-06-01T02:22:47.951Z,98957.14
2018-06-01T02:23:09.225Z,98958.48
2018-06-01T02:23:30.421Z,98958.59
2018-06-01T02:23:52.791Z,98959.06
2018-06-01T02:24:15.141Z,98959.77
2018-06-01T02:24:36.353Z,98963.02
2018-06-01T02:24:57.569Z,98960.38
2018-06-01T02:25:20.572Z,98958.02
2018-06-01T02:25:43.573Z,98958.23
2018-06-01T02:26:04.817Z,98957.20
2018-06-01T02:26:26.058Z,98955.98
2018-06-01T02:26:47.749Z,98953.53
2018-06-01T02:27:10.715Z,98950.89
2018-06-01T02:27:31.962Z,98947.73
2018-06-01T02:27:54.963Z,98947.11
2018-06-01T02:28:16.952Z,98947.01
2018-06-01T02:28:39.913Z,98944.98
2018-06-01T02:29:02.314Z,98947.73
2018-06-01T02:29:23.896Z,98944.80
2018-06-01T02:29:45.127Z,98949.97
2018-06-01T02:30:08.118Z,98956.45
2018-06-01T02:30:29.721Z,98949.14
2018-06-01T02:30:50.954Z,98951.38
2018-06-01T02:31:13.939Z,98947.60
2018-06-01T02:31:36.309Z,98947.60
2018-06-01T02:31:57.925Z,98947.11
2018-06-01T02:32:19.537Z,98949.33
2018-06-01T02:32:42.535Z,98954.00
2018-06-01T02:33:05.495Z,98956.84
2018-06-01T02:33:28.477Z,98955.00
2018-06-01T02:33:51.464Z,98954.78
2018-06-01T02:34:13.060Z,98955.19
2018-06-01T02:34:34.763Z,98956.59
2018-06-01T02:34:57.743Z,98953.03
2018-06-01T02:35:20.716Z,98947.74
2018-06-01T02:35:43.683Z,98940.11
2018-06-01T02:36:04.917Z,98941.92
2018-06-01T02:36:27.888Z,98942.59
2018-06-01T02:36:49.118Z,98943.32
2018-06-01T02:37:10.738Z,98943.41
2018-06-01T02:37:33.883Z,98944.53
2018-06-01T02:37:55.173Z,98942.52
2018-06-01T02:38:18.162Z,98945.21
2018-06-01T02:38:41.153Z,98942.59
2018-06-01T02:39:02.842Z,98945.02
2018-06-01T02:39:25.158Z,98943.08
2018-06-01T02:39:47.867Z,98948.86
2018-06-01T02:40:10.828Z,98945.70
2018-06-01T02:40:33.785Z,98940.52
2018-06-01T02:40:56.540Z,98950.55
2018-06-01T02:41:18.203Z,98951.06
2018-06-01T02:41:40.534Z,98950.34
2018-06-01T02:42:03.514Z,98940.45
2018-06-01T02:42:25.129Z,98948.91
2018-06-01T02:42:48.103Z,98945.72
2018-06-01T02:43:10.475Z,98944.91
2018-06-01T02:43:33.473Z,98947.37
2018-06-01T02:43:55.278Z,98947.26
2018-06-01T02:44:17.258Z,98949.39
2018-06-01T02:44:40.230Z,98940.03
2018-06-01T02:45:02.202Z,98942.16
2018-06-01T02:45:25.195Z,98938.81
2018-06-01T02:45:48.205Z,98941.13
2018-06-01T02:46:09.873Z,98934.95
2018-06-01T02:46:32.842Z,98940.54
2018-06-01T02:46:55.845Z,98938.92
2018-06-01T02:47:18.819Z,98933.71
2018-06-01T02:47:41.797Z,98935.95
2018-06-01T02:48:04.759Z,98931.47
2018-06-01T02:48:27.716Z,98933.89
2018-06-01T02:48:50.679Z,98928.72
2018-06-01T02:49:12.676Z,98934.41
2018-06-01T02:49:33.911Z,98925.39
2018-06-01T02:49:55.541Z,98924.45
2018-06-01T02:50:17.543Z,98924.85
2018-06-01T02:50:40.539Z,98925.66
2018-06-01T02:51:02.130Z,98924.34
2018-06-01T02:51:25.138Z,98919.23
2018-06-01T02:51:48.203Z,98919.64
2018-06-01T02:52:11.161Z,98927.58
2018-06-01T02:52:32.381Z,98918.45
2018-06-01T02:52:55.329Z,98920.48
2018-06-01T02:53:18.272Z,98920.43
2018-06-01T02:53:41.271Z,98922.97
2018-06-01T02:54:03.283Z,98920.73
2018-06-01T02:54:24.894Z,98924.16
2018-06-01T02:54:47.906Z,98924.40
2018-06-01T02:55:10.869Z,98923.48
2018-06-01T02:55:33.855Z,98924.38
2018-06-01T02:55:55.862Z,98926.13
2018-06-01T02:56:18.577Z,98926.75
2018-06-01T02:56:41.573Z,98921.97
2018-06-01T02:57:04.250Z,98927.66
2018-06-01T02:57:26.242Z,98923.11
2018-06-01T02:57:49.286Z,98926.86
2018-06-01T02:58:11.300Z,98926.05
2018-06-01T02:58:33.637Z,98926.13
2018-06-01T02:58:56.581Z,98927.56
2018-06-01T02:59:18.228Z,98924.21
2018-06-01T02:59:40.204Z,98931.31
2018-06-01T03:00:02.983Z,98929.31
2018-06-01T03:00:24.237Z,98931.58
2018-06-01T03:00:47.270Z,98931.47
2018-06-01T03:01:09.637Z,98927.40
2018-06-01T03:01:32.376Z,98930.77
2018-06-01T03:01:53.959Z,98930.28
2018-06-01T03:02:15.903Z,98929.98
2018-06-01T03:02:38.880Z,98931.20
2018-06-01T03:03:00.485Z,98934.44
2018-06-01T03:03:23.189Z,98935.44
2018-06-01T03:03:46.199Z,98938.06
2018-06-01T03:04:08.575Z,98935.63
2018-06-01T03:04:30.881Z,98932.17
2018-06-01T03:04:53.840Z,98935.81
2018-06-01T03:05:15.436Z,98932.95
2018-06-01T03:05:37.435Z,98929.98
2018-06-01T03:06:00.395Z,98930.50
2018-06-01T03:06:23.401Z,98931.41
2018-06-01T03:07:17.059Z,98934.03
2018-06-01T03:07:39.010Z,98929.66
2018-06-01T03:08:01.979Z,98929.15
2018-06-01T03:08:23.989Z,98927.64
2018-06-01T03:08:46.946Z,98922.83
2018-06-01T03:09:08.218Z,98924.08
2018-06-01T03:09:30.943Z,98917.76
2018-06-01T03:09:52.152Z,98913.27
2018-06-01T03:10:13.384Z,98922.53
2018-06-01T03:10:36.432Z,98914.30
2018-06-01T03:10:58.038Z,98912.25
2018-06-01T03:11:20.414Z,98919.27
2018-06-01T03:11:43.378Z,98915.89
2018-06-01T03:12:05.056Z,98919.23
2018-06-01T03:12:27.023Z,98912.33
2018-06-01T03:12:48.616Z,98920.38
2018-06-01T03:13:11.323Z,98917.43
2018-06-01T03:13:33.291Z,98914.86
2018-06-01T03:13:54.502Z,98911.44
2018-06-01T03:14:16.480Z,98911.00
2018-06-01T03:14:38.104Z,98913.76
2018-06-01T03:15:01.114Z,98912.73
2018-06-01T03:15:24.075Z,98905.13
2018-06-01T03:15:47.029Z,98904.39
2018-06-01T03:16:10.026Z,98909.50
2018-06-01T03:16:32.751Z,98907.25
2018-06-01T03:16:55.075Z,98910.49
2018-06-01T03:17:16.305Z,98908.25
2018-06-01T03:17:37.915Z,98906.01
2018-06-01T03:18:00.885Z,98899.31
2018-06-01T03:18:23.843Z,98905.13
2018-06-01T03:18:46.811Z,98901.75
2018-06-01T03:19:08.090Z,98902.59
2018-06-01T03:19:29.337Z,98904.53
2018-06-01T03:19:52.308Z,98905.41
2018-06-01T03:20:15.057Z,98903.69
2018-06-01T03:20:38.056Z,98904.80
2018-06-01T03:21:00.403Z,98903.98
2018-06-01T03:21:22.383Z,98898.30
2018-06-01T03:21:43.595Z,98900.72
2018-06-01T03:22:06.597Z,98898.29
2018-06-01T03:22:27.872Z,98899.31
2018-06-01T03:22:49.463Z,98901.85
2018-06-01T03:23:11.797Z,98903.58
2018-06-01T03:23:34.155Z,98905.72
2018-06-01T03:23:55.407Z,98905.41
2018-06-01T03:24:17.060Z,98903.36
2018-06-01T03:24:40.039Z,98906.34
2018-06-01T03:25:01.643Z,98909.41
2018-06-01T03:25:24.000Z,98903.31
2018-06-01T03:25:46.335Z,98905.85
2018-06-01T03:26:09.367Z,98898.84
2018-06-01T03:26:31.299Z,98904.27
2018-06-01T03:26:54.274Z,98906.10
2018-06-01T03:27:16.321Z,98901.00
2018-06-01T03:27:37.910Z,98899.78
2018-06-01T03:28:00.274Z,98897.36
2018-06-01T03:28:23.231Z,98901.95
2018-06-01T03:28:46.207Z,98900.73
2018-06-01T03:29:07.459Z,98898.33
2018-06-01T03:29:30.449Z,98901.57
2018-06-01T03:29:51.680Z,98904.95
2018-06-01T03:30:14.450Z,98891.50
2018-06-01T03:30:36.439Z,98897.93
2018-06-01T03:30:58.899Z,98900.71
2018-06-01T03:31:21.895Z,98899.71
2018-06-01T03:31:43.188Z,98899.53
2018-06-01T03:32:05.858Z,98900.44
2018-06-01T03:32:27.428Z,98893.53
2018-06-01T03:32:50.419Z,98888.14
2018-06-01T03:33:12.797Z,98892.83
2018-06-01T03:33:35.774Z,98895.67
2018-06-01T03:33:58.535Z,98893.94
2018-06-01T03:34:19.810Z,98896.80
2018-06-01T03:34:42.141Z,98892.72
2018-06-01T03:35:04.455Z,98892.94
2018-06-01T03:35:27.467Z,98892.05
2018-06-01T03:35:49.084Z,98889.92
2018-06-01T03:36:10.294Z,98889.63
2018-06-01T03:36:32.673Z,98893.78
2018-06-01T03:36:55.634Z,98889.11
2018-06-01T03:37:16.871Z,98890.44
2018-06-01T03:37:38.869Z,98884.41
2018-06-01T03:38:00.076Z,98887.38
2018-06-01T03:38:22.449Z,98890.41
2018-06-01T03:38:43.730Z,98885.84
2018-06-01T03:39:05.019Z,98886.95
2018-06-01T03:39:26.306Z,98888.46
2018-06-01T03:39:49.327Z,98889.19
2018-06-01T03:40:47.289Z,98890.84
2018-06-01T03:41:10.296Z,98897.53
2018-06-01T03:41:33.259Z,98895.51
2018-06-01T03:41:56.224Z,98893.64
2018-06-01T03:42:19.208Z,98893.02
2018-06-01T03:42:42.236Z,98895.67
2018-06-01T03:43:05.204Z,98900.04
2018-06-01T03:43:28.153Z,98901.36
2018-06-01T03:43:49.405Z,98902.80
2018-06-01T03:44:12.391Z,98899.73
2018-06-01T03:44:35.383Z,98907.97
2018-06-01T03:44:58.366Z,98904.70
2018-06-01T03:45:19.588Z,98909.31
2018-06-01T03:45:41.193Z,98912.38
2018-06-01T03:46:02.867Z,98902.71
2018-06-01T03:46:24.121Z,98906.38
2018-06-01T03:46:47.084Z,98910.72
2018-06-01T03:47:09.182Z,98905.44
2018-06-01T03:47:31.235Z,98917.95
2018-06-01T03:47:53.245Z,98915.72
2018-06-01T03:48:14.504Z,98908.64
2018-06-01T03:48:37.499Z,98914.13
2018-06-01T03:48:58.746Z,98914.64
2018-06-01T03:49:21.772Z,98914.64
2018-06-01T03:49:43.743Z,98914.93
2018-06-01T03:50:06.746Z,98914.09
2018-06-01T03:50:27.985Z,98924.67
2018-06-01T03:50:49.968Z,98914.39
2018-06-01T03:51:11.199Z,98919.81
2018-06-01T03:51:32.428Z,98919.81
2018-06-01T03:51:55.955Z,98919.68
2018-06-01T03:52:18.940Z,98920.48
2018-06-01T03:52:41.678Z,98923.55
2018-06-01T03:53:04.674Z,98920.68
2018-06-01T03:53:26.677Z,98922.73
2018-06-01T03:53:49.408Z,98922.62
2018-06-01T03:54:10.665Z,98925.08
2018-06-01T03:54:33.676Z,98917.95
2018-06-01T03:54:55.283Z,98918.70
2018-06-01T03:55:18.289Z,98925.00
2018-06-01T03:55:40.345Z,98925.83
2018-06-01T03:56:02.353Z,98923.56
2018-06-01T03:56:24.294Z,98925.51
2018-06-01T03:56:45.606Z,98926.02
2018-06-01T03:57:08.574Z,98922.33
2018-06-01T03:57:30.174Z,98924.78
2018-06-01T03:57:53.162Z,98921.95
2018-06-01T03:58:14.391Z,98930.80
2018-06-01T03:58:37.463Z,98922.05
2018-06-01T03:58:59.086Z,98928.97
2018-06-01T03:59:22.112Z,98924.59
2018-06-01T03:59:45.077Z,98930.15
2018-06-01T04:00:08.098Z,98925.16
2018-06-01T04:00:30.218Z,98924.56
2018-06-01T04:00:52.591Z,98926.91
2018-06-01T04:01:13.893Z,98927.42
2018-06-01T04:01:36.246Z,98925.34
2018-06-01T04:01:59.255Z,98929.61
2018-06-01T04:02:20.885Z,98931.83
2018-06-01T04:02:43.913Z,98932.74
2018-06-01T04:03:05.535Z,98934.36
2018-06-01T04:03:26.809Z,98928.45
2018-06-01T04:03:49.167Z,98927.86
2018-06-01T04:04:12.174Z,98932.83
2018-06-01T04:04:35.157Z,98931.98
2018-06-01T04:04:56.419Z,98936.06
2018-06-01T04:05:19.426Z,98930.64
2018-06-01T04:05:42.434Z,98935.01
2018-06-01T04:06:05.426Z,98938.59
2018-06-01T04:06:28.430Z,98940.03
2018-06-01T04:06:50.782Z,98932.61
2018-06-01T04:07:13.767Z,98943.59
2018-06-01T04:07:36.759Z,98937.81
2018-06-01T04:07:59.773Z,98935.25
2018-06-01T04:08:22.716Z,98939.03
2018-06-01T04:08:45.660Z,98936.79
2018-06-01T04:09:06.921Z,98933.77
2018-06-01T04:09:29.926Z,98941.70
2018-06-01T04:09:52.666Z,98940.14
2018-06-01T04:10:15.643Z,98938.73
2018-06-01T04:10:38.585Z,98937.73
2018-06-01T04:11:00.573Z,98936.90
2018-06-01T04:11:22.221Z,98940.81
2018-06-01T04:11:44.227Z,98931.61
2018-06-01T04:12:07.222Z,98940.81
2018-06-01T04:12:29.583Z,98938.67
2018-06-01T04:12:51.599Z,98937.54
2018-06-01T04:13:13.250Z,98936.05
2018-06-01T04:13:36.341Z,98942.20
2018-06-01T04:13:59.321Z,98941.26
2018-06-01T04:14:22.343Z,98938.25
2018-06-01T04:14:45.070Z,98941.12
2018-06-01T04:15:07.796Z,98938.66
2018-06-01T04:15:30.774Z,98944.97
2018-06-01T04:15:52.388Z,98933.09
2018-06-01T04:16:15.337Z,98936.58
2018-06-01T04:16:38.303Z,98946.13
2018-06-01T04:17:00.322Z,98940.52
2018-06-01T04:17:22.684Z,98941.13
2018-06-01T04:17:45.054Z,98937.10
2018-06-01T04:18:08.016Z,98943.07
2018-06-01T04:18:29.649Z,98945.41
2018-06-01T04:18:52.393Z,98940.21
2018-06-01T04:19:15.373Z,98941.65
2018-06-01T04:19:38.418Z,98948.98
2018-06-01T04:20:01.397Z,98946.12
2018-06-01T04:20:24.391Z,98947.99
2018-06-01T04:20:47.365Z,98950.94
2018-06-01T04:21:10.032Z,98955.22
2018-06-01T04:21:31.301Z,98954.02
2018-06-01T04:21:54.291Z,98955.85
2018-06-01T04:22:15.566Z,98958.11
2018-06-01T04:22:38.309Z,98957.09
2018-06-01T04:22:59.564Z,98958.46